Time;durP1;ratioP1;P1;durP2;ratioP2;P2;SDS_P1;SDS_P2;PMS_P1;PMS_P2;Temp;Humidity;BMP_temperature;BMP_pressure;BME280_temperature;BME280_humidity;BME280_pressure;Samples;Min_cycle;Max_cycle;Signal;HPM_P1;HPM_P2
2023/01/02 18:38:29;;;;;;;3.40;1.23;;;11.10;99.90;;;;;;5174328;27;20537;-71
2023/01/02 18:40:57;;;;;;;1.73;0.90;;;11.10;99.90;;;;;;5162986;27;20500;-71
2023/01/02 18:43:28;;;;;;;0.70;0.70;;;11.30;99.90;;;;;;5153155;27;20589;-71
2023/01/02 18:45:58;;;;;;;0.83;0.83;;;11.60;99.90;;;;;;5152973;27;20865;-69
2023/01/02 18:48:25;;;;;;;0.80;0.80;;;11.90;99.90;;;;;;5152881;27;20450;-71
2023/01/02 18:51:01;;;;;;;1.83;0.60;;;12.10;99.90;;;;;;5152443;27;20462;-71
2023/01/02 18:53:34;;;;;;;1.37;1.03;;;12.30;99.90;;;;;;5153434;27;20472;-71
2023/01/02 18:56:06;;;;;;;0.90;0.80;;;12.40;99.90;;;;;;5152671;27;20482;-71
2023/01/02 18:58:39;;;;;;;0.90;0.90;;;12.40;99.90;;;;;;5152671;27;20479;-70
2023/01/02 19:01:20;;;;;;;1.00;1.00;;;12.40;99.90;;;;;;5153158;27;20784;-70
2023/01/02 19:03:48;;;;;;;1.60;0.97;;;12.40;99.90;;;;;;5152541;27;20439;-70
2023/01/02 19:06:18;;;;;;;0.80;0.80;;;12.40;99.90;;;;;;5152426;27;20591;-70
2023/01/02 19:08:46;;;;;;;1.07;0.80;;;12.30;99.90;;;;;;5152338;27;20519;-70
2023/01/02 19:14:02;;;;;;;0.90;0.90;;;12.30;99.90;;;;;;5152763;27;20544;-72
2023/01/02 19:16:29;;;;;;;0.70;0.70;;;12.30;99.90;;;;;;5152852;27;20496;-71
2023/01/02 19:18:56;;;;;;;0.60;0.60;;;12.20;99.90;;;;;;5152914;27;20499;-70
2023/01/02 19:21:27;;;;;;;0.80;0.80;;;12.10;99.90;;;;;;5152770;27;20502;-70
2023/01/02 19:23:58;;;;;;;1.10;0.70;;;12.10;99.90;;;;;;5152581;27;20483;-69
2023/01/02 19:26:29;;;;;;;0.80;0.80;;;12.00;99.90;;;;;;5152934;27;20481;-71
2023/01/02 19:28:58;;;;;;;1.20;0.97;;;12.00;99.90;;;;;;5154386;27;20435;-74
2023/01/02 19:31:28;;;;;;;0.90;0.90;;;12.00;99.90;;;;;;5155291;27;20877;-74
2023/01/02 19:33:57;;;;;;;0.70;0.70;;;12.00;99.90;;;;;;5153131;27;20446;-71
2023/01/02 19:36:34;;;;;;;2.57;2.40;;;12.00;99.90;;;;;;5152431;27;20964;-70
2023/01/02 19:39:18;;;;;;;0.70;0.70;;;11.90;99.90;;;;;;5152618;27;20442;-71
2023/01/02 19:44:29;;;;;;;1.00;1.00;;;11.90;99.90;;;;;;5152931;27;20406;-69
2023/01/02 19:46:56;;;;;;;0.90;0.90;;;11.90;99.90;;;;;;5152842;27;20443;-73
2023/01/02 19:49:22;;;;;;;0.90;0.90;;;11.90;99.90;;;;;;5140723;27;20440;-70
2023/01/02 19:51:49;;;;;;;1.23;0.90;;;11.90;99.90;;;;;;5138565;27;20524;-66
2023/01/02 19:54:17;;;;;;;0.70;0.70;;;11.90;99.90;;;;;;5138368;27;20516;-64
2023/01/02 19:56:44;;;;;;;1.30;1.20;;;11.90;99.90;;;;;;5141575;27;20542;-70
2023/01/02 19:59:10;;;;;;;0.87;0.87;;;11.90;99.90;;;;;;5144968;27;20462;-64
2023/01/02 20:01:37;;;;;;;0.93;0.93;;;11.80;99.90;;;;;;5143411;27;20474;-63
2023/01/02 20:04:04;;;;;;;1.23;1.20;;;11.80;99.90;;;;;;5141511;27;20446;-63
2023/01/02 20:06:32;;;;;;;1.53;1.03;;;11.80;99.90;;;;;;5140604;27;20934;-64
2023/01/02 20:08:59;;;;;;;1.47;1.40;;;11.80;99.90;;;;;;5139699;27;20436;-65
2023/01/02 20:14:26;;;;;;;1.63;1.20;;;11.80;99.90;;;;;;5074940;28;20449;-64
2023/01/02 20:16:52;;;;;;;0.73;0.73;;;11.80;99.90;;;;;;5074593;28;20477;-65
2023/01/02 20:19:19;;;;;;;1.00;1.00;;;11.70;99.90;;;;;;5101796;27;20443;-66
2023/01/02 20:21:46;;;;;;;0.93;0.93;;;11.70;99.90;;;;;;5138071;27;20475;-65
2023/01/02 20:24:12;;;;;;;1.30;1.20;;;11.70;99.90;;;;;;5137765;27;20451;-65
2023/01/02 20:26:40;;;;;;;1.07;0.97;;;11.70;99.90;;;;;;5137493;27;20512;-64
2023/01/02 20:29:07;;;;;;;0.83;0.83;;;11.80;99.90;;;;;;5137484;27;20508;-64
2023/01/02 20:31:34;;;;;;;1.60;0.90;;;11.80;99.90;;;;;;5137370;27;20524;-64
2023/01/02 20:34:01;;;;;;;0.90;0.90;;;11.80;99.90;;;;;;5138738;27;20534;-64
2023/01/02 20:36:28;;;;;;;0.80;0.80;;;11.80;99.90;;;;;;5140048;27;20470;-74
2023/01/02 20:38:54;;;;;;;1.10;1.10;;;11.80;99.90;;;;;;5139262;27;20439;-72
2023/01/02 20:41:21;;;;;;;0.93;0.93;;;11.80;99.90;;;;;;5139374;27;20833;-72
2023/01/02 20:43:49;;;;;;;0.90;0.90;;;11.80;99.90;;;;;;5139352;27;20476;-74
2023/01/02 20:46:16;;;;;;;0.93;0.93;;;11.80;99.90;;;;;;5141417;27;20447;-74
2023/01/02 20:48:43;;;;;;;1.27;1.27;;;11.80;99.90;;;;;;5140231;27;20759;-73
2023/01/02 20:51:09;;;;;;;1.27;1.27;;;11.90;99.90;;;;;;5140230;27;21044;-70
2023/01/02 20:53:36;;;;;;;1.40;1.30;;;11.90;99.90;;;;;;5139684;27;20451;-77
2023/01/02 20:56:03;;;;;;;1.10;1.10;;;11.90;99.90;;;;;;5139943;27;20465;-73
2023/01/02 20:58:30;;;;;;;1.20;1.20;;;11.80;99.90;;;;;;5138884;27;20495;-73
2023/01/02 21:00:58;;;;;;;1.57;1.50;;;11.90;99.90;;;;;;5136322;27;20467;-64
2023/01/02 21:03:24;;;;;;;2.30;2.20;;;11.90;99.90;;;;;;5137721;27;20447;-73
2023/01/02 21:05:52;;;;;;;1.40;1.40;;;11.90;99.90;;;;;;5137394;27;20448;-74
2023/01/02 21:08:19;;;;;;;1.70;1.60;;;11.90;99.90;;;;;;5138798;27;20451;-72
2023/01/02 21:10:46;;;;;;;1.63;1.63;;;11.90;99.90;;;;;;5137301;27;20860;-65
2023/01/02 21:13:12;;;;;;;1.57;1.47;;;11.90;99.90;;;;;;5136236;27;20830;-71
2023/01/02 21:15:44;;;;;;;1.90;1.80;;;11.90;99.90;;;;;;5139084;27;20811;-73
2023/01/02 21:18:14;;;;;;;2.00;2.00;;;11.90;99.90;;;;;;5137858;27;20463;-77
2023/01/02 21:20:42;;;;;;;2.33;2.03;;;11.90;99.90;;;;;;5138129;27;20463;-71
2023/01/02 21:23:09;;;;;;;2.37;2.27;;;11.90;99.90;;;;;;5138539;27;20459;-68
2023/01/02 21:25:36;;;;;;;2.23;2.13;;;11.90;99.90;;;;;;5135814;27;20992;-64
2023/01/02 21:28:04;;;;;;;2.07;1.93;;;11.90;99.90;;;;;;5136279;27;20447;-65
2023/01/02 21:30:31;;;;;;;1.97;1.97;;;11.90;99.90;;;;;;5136438;27;20555;-65
2023/01/02 21:32:58;;;;;;;2.40;2.30;;;11.90;99.90;;;;;;5135921;27;20448;-65
2023/01/02 21:35:26;;;;;;;2.00;1.90;;;11.90;99.90;;;;;;5135718;27;20492;-65
2023/01/02 21:37:53;;;;;;;2.37;2.27;;;12.00;99.90;;;;;;5135322;27;20510;-65
2023/01/02 21:40:20;;;;;;;3.03;2.07;;;12.00;99.90;;;;;;5135964;27;20474;-65
2023/01/02 21:42:47;;;;;;;2.53;2.33;;;12.00;99.90;;;;;;5139053;27;20456;-65
2023/01/02 21:45:14;;;;;;;2.77;2.67;;;12.00;99.90;;;;;;5143426;27;20538;-65
2023/01/02 21:47:42;;;;;;;1.90;1.80;;;12.00;99.90;;;;;;5144314;27;20471;-65
2023/01/02 21:50:09;;;;;;;2.40;2.30;;;12.00;99.90;;;;;;5144079;27;20523;-66
2023/01/02 21:52:38;;;;;;;2.17;2.07;;;12.00;99.90;;;;;;5143437;27;20451;-67
2023/01/02 21:55:07;;;;;;;2.53;2.40;;;12.10;99.90;;;;;;5144167;27;20845;-67
2023/01/02 21:57:34;;;;;;;2.93;2.67;;;12.10;99.90;;;;;;5144681;27;20468;-67
2023/01/02 22:00:02;;;;;;;2.33;2.23;;;12.00;99.90;;;;;;5143167;27;20465;-68
2023/01/02 22:02:30;;;;;;;2.40;2.20;;;12.10;99.90;;;;;;5144183;27;20452;-66
2023/01/02 22:04:58;;;;;;;2.50;2.37;;;12.10;99.90;;;;;;5145390;27;20448;-66
2023/01/02 22:07:24;;;;;;;2.77;2.57;;;12.00;99.90;;;;;;5145959;27;20448;-65
2023/01/02 22:09:52;;;;;;;2.23;2.17;;;12.00;99.90;;;;;;5145113;27;20765;-65
2023/01/02 22:12:19;;;;;;;2.53;2.40;;;12.00;99.90;;;;;;5143698;27;20454;-66
2023/01/02 22:14:46;;;;;;;2.10;2.00;;;12.00;99.90;;;;;;5143964;27;20860;-70
2023/01/02 22:17:13;;;;;;;2.17;2.07;;;12.00;99.90;;;;;;5144557;27;20451;-65
2023/01/02 22:19:41;;;;;;;1.77;1.67;;;12.00;99.90;;;;;;5145085;27;20451;-64
2023/01/02 22:22:08;;;;;;;2.00;1.90;;;11.90;99.90;;;;;;5148181;27;20881;-66
2023/01/02 22:24:36;;;;;;;2.00;1.90;;;11.80;99.90;;;;;;5149623;27;20439;-67
2023/01/02 22:27:07;;;;;;;1.60;1.60;;;11.90;99.90;;;;;;5149349;27;20450;-66
2023/01/02 22:29:36;;;;;;;1.87;1.77;;;11.80;99.90;;;;;;5145847;27;20444;-66
2023/01/02 22:32:03;;;;;;;1.77;1.67;;;11.80;99.90;;;;;;5142662;27;21062;-65
2023/01/02 22:34:34;;;;;;;1.63;1.53;;;11.80;99.90;;;;;;5143536;27;20788;-65
